Nearby METAR Reports

 

KISP - Islip, New York, USA
Distance from station: SW 4mi, 6km
Updated: Wed, 02/21/2018 9:56 am EST
Mist, Overcast
Mist, Overcast
 Wind from SW
Wind: SW 9 mph , 15 km/h
Temperature: 52°F , 11°C
Dew Point: 52°F , 11°C
Humidity: 100%
Barometer: 30.31 inHg , 1026.4 hPa
Summary: Mist
Clouds: Overcast
Visibility: 1/8 mile , 0.2 km
Cloud details: Overcast 200 ft
2018/02/21 14:56 KISP 211456Z 22008KT 1/8SM R06/3000V4000FT BR VV002 11/11 A3031 RMK AO2 SFC VIS 3/4 SLP263 T01060106 56005
KHWV - Shirley, New York, USA
Distance from station: E 10mi, 16km
Updated: Wed, 02/21/2018 10:09 am EST
Mist, Overcast
Mist, Overcast
 Wind from SSW
Wind: SSW 10 mph , 17 km/h
Temperature: 50°F , 10°C
Wind Chill: 46°F , 8°C
Dew Point: 50°F , 10°C
Humidity: 100%
Barometer: 30.32 inHg , 1026.8 hPa
Summary: Mist
Clouds: Overcast
Visibility: 2 miles , 3 km
Cloud details: Overcast 200 ft
2018/02/21 15:09 KHWV 211509Z AUTO 21009KT 2SM BR OVC002 10/10 A3032 RMK AO2 T01000100
 
KFRG - Farmingdale, New York, USA
Distance from station: WSW 20mi, 33km
Updated: Wed, 02/21/2018 10:02 am EST
Mist, Overcast
Mist, Overcast
 Wind from SW
Wind: SW 8 mph , 13 km/h
Temperature: 52°F , 11°C
Dew Point: 52°F , 11°C
Humidity: 100%
Barometer: 30.31 inHg , 1026.4 hPa
Summary: Mist
Clouds: Overcast
Visibility: 3/4 mile , 1.2 km
Cloud details: Overcast 200 ft
2018/02/21 15:02 KFRG 211502Z 22007KT 3/4SM BR OVC002 11/11 A3031 RMK AO2 SFC VIS 2 T01110111
KBDR - Bridgeport, Connecticut, USA
Distance from station: N 23mi, 37km
Updated: Wed, 02/21/2018 10:00 am EST
Fog, Overcast
Fog, Overcast
 Wind from WSW
Wind: WSW 5 mph , 7 km/h
Temperature: 50°F , 10°C
Wind Chill: 48°F , 9°C
Dew Point: 50°F , 10°C
Humidity: 100%
Barometer: 30.29 inHg , 1025.7 hPa
Summary: Fog
Clouds: Overcast
Visibility: 1/2 mile , 0.8 km
Cloud details: Overcast 200 ft
2018/02/21 15:00 KBDR 211500Z 24004KT 1/2SM FG VV002 10/10 A3029 RMK AO2 T01000100
 
KFOK - Westhampton Beac, New York, USA
Distance from station: E 23mi, 37km
Updated: Wed, 02/21/2018 9:53 am EST
Mist, Overcast
Mist, Overcast
 Wind from SW
Wind: SW 12 mph , 19 km/h, Gust: 18 mph , 30 km/h
Temperature: 48°F , 9°C
Wind Chill: 43°F , 6°C
Dew Point: 48°F , 9°C
Humidity: 100%
Barometer: 30.32 inHg , 1026.8 hPa
Summary: Mist
Clouds: Overcast
Visibility: 1 mile , 2 km
Cloud details: Overcast 100 ft
2018/02/21 14:53 KFOK 211453Z 23010G16KT 1SM BR OVC001 09/09 A3032 RMK AO2 SLP269 T00940094 58002
KHVN - New Haven/Tweed, Connecticut, USA
Distance from station: NNE 31mi, 50km
Updated: Wed, 02/21/2018 9:53 am EST
Fog, Overcast
Fog, Overcast
 Wind from WSW
Wind: WSW 6 mph , 9 km/h
Temperature: 48°F , 9°C
Wind Chill: 45°F , 7°C
Dew Point: 48°F , 9°C
Humidity: 100%
Barometer: 30.29 inHg , 1025.7 hPa
Summary: Fog
Clouds: Overcast
Visibility: 1/4 mile , 0.4 km
Cloud details: Overcast 200 ft
2018/02/21 14:53 KHVN 211453Z 24005KT 1/4SM R02/1200V1400FT FG VV002 09/09 A3029 RMK AO2 SLP257 T00890089 58002
 
KHPN - White Plains, New York, USA
Distance from station: WNW 37mi, 60km
Updated: Wed, 02/21/2018 9:56 am EST
Mist, Mostly cloudy
Mist, Mostly cloudy
 Wind from calm
Wind: Calm
Temperature: 59°F , 15°C
Dew Point: 55°F , 13°C
Humidity: 88%
Barometer: 30.28 inHg , 1025.4 hPa
Summary: Mist
Clouds: Mostly cloudy
Visibility: 4 miles , 6 km
Cloud details: Few Clouds 1000 ft
Mostly cloudy 1200 ft
2018/02/21 14:56 KHPN 211456Z 00000KT 4SM BR FEW010 BKN012 15/13 A3028 RMK AO2 SLP253 T01500133 58002
KJFK - Nyc/Jfk Arpt, New York, USA
Distance from station: WSW 40mi, 64km
Updated: Wed, 02/21/2018 9:51 am EST
Mist, Mostly cloudy
Mist, Mostly cloudy
 Wind from SSW
Wind: SSW 7 mph , 11 km/h
Temperature: 48°F , 9°C
Wind Chill: 45°F , 7°C
Dew Point: 48°F , 9°C
Humidity: 100%
Barometer: 30.32 inHg , 1026.8 hPa
Summary: Mist
Clouds: Mostly cloudy
Visibility: 1/8 mile , 0.2 km
Cloud details: Few Clouds 0 ft
Mostly cloudy 200 ft
Mostly cloudy 1800 ft
2018/02/21 14:51 KJFK 211451Z 20006KT 1/8SM R04R/P6000FT BR FEW000 BKN002 BKN018 09/09 A3032 RMK AO2 SFC VIS 2 SLP265 BR FEW000 T00940094 58002
 
KDXR - Danbury, Connecticut, USA
Distance from station: NNW 42mi, 68km
Updated: Wed, 02/21/2018 9:53 am EST
Overcast
Overcast
 Wind from SW
Wind: SW 10 mph , 17 km/h
Temperature: 63°F , 17°C
Dew Point: 57°F , 14°C
Humidity: 83%
Barometer: 30.28 inHg , 1025.4 hPa
Clouds: Overcast
Visibility: 10 miles , 16 km
Cloud details: Overcast 1300 ft
2018/02/21 14:53 KDXR 211453Z 23009KT 10SM OVC013 17/14 A3028 RMK AO2 SLP254 T01670139 55002
KHTO - East Hampton, New York, USA
Distance from station: E 43mi, 69km
Updated: Wed, 02/21/2018 9:55 am EST
Mist, Overcast
Mist, Overcast
 Wind from SW
Wind: SW 10 mph , 17 km/h, Gust: 18 mph , 30 km/h
Temperature: 46°F , 8°C
Wind Chill: 41°F , 5°C
Dew Point: 46°F , 8°C
Humidity: 100%
Barometer: 30.31 inHg , 1026.4 hPa
Summary: Mist
Clouds: Overcast
Visibility: 3/4 mile , 1.2 km
Cloud details: Overcast 300 ft
2018/02/21 14:55 KHTO 211455Z AUTO 22009G16KT 3/4SM BR OVC003 08/08 A3031 RMK AO2 T00830082
 
KOXC - Oxford/Waterbury, Connecticut, USA
Distance from station: N 43mi, 70km
Updated: Wed, 02/21/2018 9:51 am EST
Mist, Overcast
Mist, Overcast
 Wind from SSW
Wind: SSW 8 mph , 13 km/h
Temperature: 57°F , 14°C
Dew Point: 55°F , 13°C
Humidity: 94%
Barometer: 30.28 inHg , 1025.4 hPa
Summary: Mist
Clouds: Overcast
Visibility: 5 miles , 8 km
Cloud details: Overcast 700 ft
2018/02/21 14:51 KOXC 211451Z 21007KT 5SM BR OVC007 14/13 A3028 RMK AO2 SLP265 60000 T01440133 58002
KLGA - Nyc/La Guardia, New York, USA
Distance from station: W 44mi, 70km
Updated: Wed, 02/21/2018 9:51 am EST
Mostly cloudy
Mostly cloudy
 Wind from SW
Wind: SW 15 mph , 24 km/h
Temperature: 64°F , 18°C
Dew Point: 57°F , 14°C
Humidity: 78%
Barometer: 30.29 inHg , 1025.7 hPa
Clouds: Mostly cloudy
Visibility: 10 miles , 16 km
Cloud details: Few Clouds 1000 ft
Mostly cloudy 1700 ft
2018/02/21 14:51 KLGA 211451Z 23013KT 10SM FEW010 BKN017 18/14 A3029 RMK AO2 SLP255 T01780144 58003 $
 
KSNC - Chester, Connecticut, USA
Distance from station: NE 47mi, 76km
Updated: Wed, 02/21/2018 9:55 am EST
Fog, Overcast
Fog, Overcast
 Wind from SW
Wind: SW 9 mph , 15 km/h
Temperature: 55°F , 13°C
Dew Point: 55°F , 13°C
Humidity: 100%
Barometer: 30.28 inHg , 1025.4 hPa
Summary: Fog
Clouds: Overcast
Visibility: less than 1/4 mile , 0.4 km
Cloud details: Overcast 100 ft
2018/02/21 14:55 KSNC 211455Z AUTO 23008KT M1/4SM FG OVC001 13/13 A3028 RMK AO2
KMMK - Meriden, Connecticut, USA
Distance from station: NNE 48mi, 77km
Updated: Wed, 02/21/2018 9:53 am EST
Mist, Overcast
Mist, Overcast
 Wind from S
Wind: S 10 mph , 17 km/h
Temperature: 54°F , 12°C
Dew Point: 54°F , 12°C
Humidity: 100%
Barometer: 30.28 inHg , 1025.4 hPa
Summary: Mist
Clouds: Overcast
Visibility: 4 miles , 6 km
Cloud details: Overcast 300 ft
2018/02/21 14:53 KMMK 211453Z AUTO 17009KT 4SM BR OVC003 12/12 A3028 RMK AO2 SLP252 T01170117 57001
 
KNYC - Nyc/Central Park, New York, USA
Distance from station: W 48mi, 77km
Updated: Wed, 02/21/2018 9:51 am EST
Overcast
Overcast
 Wind from WSW
Wind: WSW 8 mph , 13 km/h, Gust: 20 mph , 31 km/h
Temperature: 64°F , 18°C
Dew Point: 57°F , 14°C
Humidity: 78%
Barometer: 30.31 inHg , 1026.4 hPa
Clouds: Overcast
Visibility: 8 miles , 13 km
Cloud details: Overcast 1500 ft
2018/02/21 14:51 KNYC 211451Z AUTO 25007G17KT 210V290 8SM OVC015 18/14 A3031 RMK AO2 SLP256 T01780144 56002 $